createdAt,value
2023-02-02T00:00:43.912Z,74.30
2023-02-02T00:03:13.873Z,74.30
2023-02-02T00:05:52.348Z,74.40
2023-02-02T00:08:22.513Z,74.40
2023-02-02T00:10:52.439Z,74.80
2023-02-02T00:13:22.364Z,74.30
2023-02-02T00:15:52.043Z,74.10
2023-02-02T00:18:21.979Z,74.00
2023-02-02T00:20:51.986Z,74.00
2023-02-02T00:23:21.650Z,73.90
2023-02-02T00:25:52.958Z,73.70
2023-02-02T00:28:22.672Z,73.80
2023-02-02T00:30:52.433Z,73.60
2023-02-02T00:33:22.348Z,74.20
2023-02-02T00:35:54.950Z,73.50
2023-02-02T00:38:25.889Z,73.30
2023-02-02T00:40:55.607Z,73.40
2023-02-02T00:43:25.713Z,73.40
2023-02-02T00:45:55.919Z,73.30
2023-02-02T00:48:27.636Z,73.30
2023-02-02T00:50:57.691Z,73.30
2023-02-02T00:53:27.442Z,73.20
2023-02-02T00:55:57.264Z,73.30
2023-02-02T00:58:27.161Z,73.20
2023-02-02T01:00:57.001Z,73.10
2023-02-02T01:03:26.936Z,73.00
2023-02-02T01:05:56.700Z,73.10
2023-02-02T01:08:26.448Z,72.90
2023-02-02T01:10:56.150Z,72.90
2023-02-02T01:13:25.944Z,72.80
2023-02-02T01:15:59.694Z,72.70
2023-02-02T01:18:30.482Z,72.60
2023-02-02T01:21:02.727Z,72.60
2023-02-02T01:23:32.950Z,72.50
2023-02-02T01:26:04.673Z,72.30
2023-02-02T01:28:34.483Z,72.10
2023-02-02T01:31:10.149Z,72.20
2023-02-02T01:33:40.601Z,72.10
2023-02-02T01:36:15.688Z,72.00
2023-02-02T01:38:45.739Z,71.80
2023-02-02T01:41:18.497Z,71.80
2023-02-02T01:43:58.180Z,71.70
2023-02-02T01:46:32.676Z,71.60
2023-02-02T01:49:21.076Z,71.30
2023-02-02T01:51:57.357Z,71.20
2023-02-02T01:54:37.541Z,71.00
2023-02-02T01:57:17.659Z,70.80
2023-02-02T01:59:49.516Z,70.50
2023-02-02T02:02:19.882Z,70.40
2023-02-02T02:04:52.922Z,70.30
2023-02-02T02:07:22.718Z,70.00
2023-02-02T02:09:52.527Z,70.00
2023-02-02T02:12:22.528Z,69.80
2023-02-02T02:15:13.278Z,69.40
2023-02-02T02:18:15.949Z,68.90
2023-02-02T02:21:44.363Z,68.20
2023-02-02T02:25:09.299Z,67.40
2023-02-02T02:28:15.537Z,67.00
2023-02-02T02:31:24.523Z,66.50
2023-02-02T02:34:20.981Z,66.00
2023-02-02T02:36:59.067Z,65.50
2023-02-02T02:39:52.563Z,65.20
2023-02-02T02:42:27.901Z,64.50
2023-02-02T02:45:02.120Z,64.50
2023-02-02T02:47:33.791Z,64.30
2023-02-02T02:50:03.730Z,63.70
2023-02-02T02:52:34.654Z,63.50
2023-02-02T02:55:07.214Z,62.70
2023-02-02T02:57:56.448Z,62.60
2023-02-02T03:00:50.764Z,61.90
2023-02-02T03:03:55.264Z,61.10
2023-02-02T03:06:44.674Z,60.70
2023-02-02T03:09:23.563Z,60.00
2023-02-02T03:11:53.273Z,59.80
2023-02-02T03:14:23.192Z,59.40
2023-02-02T03:16:54.928Z,59.10
2023-02-02T03:19:24.958Z,59.00
2023-02-02T03:21:54.688Z,58.90
2023-02-02T03:24:24.657Z,58.80
2023-02-02T03:26:54.712Z,58.50
2023-02-02T03:29:24.671Z,58.10
2023-02-02T03:31:54.746Z,58.10
2023-02-02T03:34:24.501Z,57.70
2023-02-02T03:36:55.138Z,57.50
2023-02-02T03:39:25.108Z,57.10
2023-02-02T03:41:55.045Z,57.00
2023-02-02T03:44:24.864Z,56.70
2023-02-02T03:46:58.004Z,56.50
2023-02-02T03:49:28.030Z,56.80
2023-02-02T03:51:57.935Z,56.50
2023-02-02T03:54:27.797Z,56.30
2023-02-02T03:56:57.698Z,56.10
2023-02-02T03:59:27.783Z,56.30
2023-02-02T04:01:57.669Z,56.10
2023-02-02T04:04:27.518Z,56.30
2023-02-02T04:06:57.771Z,55.90
2023-02-02T04:09:28.199Z,55.80
2023-02-02T04:11:57.877Z,55.50
2023-02-02T04:14:27.726Z,55.50
2023-02-02T04:16:57.649Z,55.30
2023-02-02T04:19:27.390Z,54.50
2023-02-02T04:21:57.232Z,54.60
2023-02-02T04:24:26.895Z,54.50
2023-02-02T04:26:56.624Z,54.20
2023-02-02T04:29:28.025Z,54.00
2023-02-02T04:31:57.987Z,53.80
2023-02-02T04:34:27.798Z,53.70
2023-02-02T04:36:58.239Z,53.60
2023-02-02T04:39:28.147Z,53.30
2023-02-02T04:41:58.020Z,53.40
2023-02-02T04:44:27.875Z,53.20
2023-02-02T04:46:57.713Z,52.80
2023-02-02T04:49:27.486Z,52.70
2023-02-02T04:51:57.723Z,52.40
2023-02-02T04:54:27.309Z,52.30
2023-02-02T04:56:57.242Z,51.90
2023-02-02T04:59:27.201Z,51.10
2023-02-02T05:01:56.867Z,50.50
2023-02-02T05:04:26.696Z,51.40
2023-02-02T05:06:56.764Z,50.70
2023-02-02T05:09:26.613Z,50.50
2023-02-02T05:11:56.585Z,50.50
2023-02-02T05:14:26.522Z,50.20
2023-02-02T05:16:56.418Z,50.00
2023-02-02T05:19:26.448Z,49.70
2023-02-02T05:21:56.651Z,49.80
2023-02-02T05:24:26.451Z,48.90
2023-02-02T05:27:00.263Z,49.30
2023-02-02T05:29:31.612Z,49.20
2023-02-02T05:32:01.540Z,48.80
2023-02-02T05:34:31.487Z,48.80
2023-02-02T05:37:01.952Z,45.60
2023-02-02T05:39:31.902Z,46.50
2023-02-02T05:42:01.715Z,46.90
2023-02-02T05:44:31.467Z,46.70
2023-02-02T05:47:01.209Z,46.30
2023-02-02T05:49:31.189Z,46.30
2023-02-02T05:52:01.457Z,45.90
2023-02-02T05:54:31.351Z,45.70
2023-02-02T05:57:03.127Z,45.30
2023-02-02T05:59:32.964Z,45.50
2023-02-02T06:02:02.810Z,45.70
2023-02-02T06:04:32.870Z,45.40
2023-02-02T06:07:02.711Z,45.50
2023-02-02T06:09:32.521Z,45.40
2023-02-02T06:12:02.258Z,45.10
2023-02-02T06:14:32.142Z,44.90
2023-02-02T06:17:02.024Z,45.10
2023-02-02T06:19:31.830Z,45.20
2023-02-02T06:22:01.580Z,44.80
2023-02-02T06:24:31.402Z,44.60
2023-02-02T06:27:01.333Z,44.70
2023-02-02T06:29:31.206Z,43.60
2023-02-02T06:32:01.171Z,41.90
2023-02-02T06:34:31.234Z,42.50
2023-02-02T06:37:01.089Z,43.10
2023-02-02T06:39:31.333Z,43.40
2023-02-02T06:42:11.869Z,43.60
2023-02-02T06:44:49.973Z,43.80
2023-02-02T06:47:19.852Z,43.60
2023-02-02T06:49:49.711Z,43.90
2023-02-02T06:52:19.791Z,43.60
2023-02-02T06:54:49.743Z,43.60
2023-02-02T06:57:19.467Z,43.60
2023-02-02T06:59:49.246Z,43.00
2023-02-02T07:02:19.202Z,42.50
2023-02-02T07:04:48.941Z,42.80
2023-02-02T07:07:18.866Z,43.00
2023-02-02T07:09:48.807Z,43.30
2023-02-02T07:12:29.170Z,42.90
2023-02-02T07:15:01.359Z,42.70
2023-02-02T07:17:31.363Z,42.50
2023-02-02T07:20:01.220Z,42.30
2023-02-02T07:22:31.054Z,42.40
2023-02-02T07:25:00.881Z,41.50
2023-02-02T07:27:30.821Z,41.40
2023-02-02T07:30:00.921Z,41.40
2023-02-02T07:32:30.735Z,41.10
2023-02-02T07:35:00.587Z,41.00
2023-02-02T07:37:30.461Z,40.90
2023-02-02T07:40:00.810Z,41.00
2023-02-02T07:42:30.613Z,40.10
2023-02-02T07:45:27.058Z,40.10
2023-02-02T07:47:51.260Z,40.00
2023-02-02T07:50:21.409Z,39.30
2023-02-02T07:52:51.364Z,38.60
2023-02-02T07:55:21.961Z,38.90
2023-02-02T07:57:53.899Z,39.40
2023-02-02T08:00:24.631Z,39.60
2023-02-02T08:02:55.173Z,39.70
2023-02-02T08:05:25.404Z,39.80
2023-02-02T08:07:55.635Z,39.80
2023-02-02T08:10:25.468Z,39.70
2023-02-02T08:12:55.235Z,40.00
2023-02-02T08:15:25.507Z,39.80
2023-02-02T08:17:55.499Z,39.40
2023-02-02T08:20:25.223Z,38.70
2023-02-02T08:22:55.094Z,39.10
2023-02-02T08:25:25.067Z,39.00
2023-02-02T08:28:03.215Z,39.30
2023-02-02T08:30:33.050Z,39.50
2023-02-02T08:33:02.816Z,39.70
2023-02-02T08:35:32.819Z,38.80
2023-02-02T08:38:07.062Z,38.60
2023-02-02T08:40:37.477Z,38.90
2023-02-02T08:43:08.471Z,38.80
2023-02-02T08:46:03.983Z,38.80
2023-02-02T08:48:34.451Z,38.80
2023-02-02T08:51:05.662Z,37.60
2023-02-02T08:53:36.608Z,37.40
2023-02-02T08:56:18.114Z,37.00
2023-02-02T08:58:53.390Z,37.60
2023-02-02T09:01:30.078Z,38.10
2023-02-02T09:04:04.353Z,38.30
2023-02-02T09:06:40.065Z,38.30
2023-02-02T09:09:13.120Z,38.40
2023-02-02T09:11:43.979Z,38.60
2023-02-02T09:14:15.705Z,38.40
2023-02-02T09:16:45.637Z,38.60
2023-02-02T09:19:15.583Z,38.60
2023-02-02T09:21:45.642Z,38.60
2023-02-02T09:24:16.538Z,38.70
2023-02-02T09:26:47.285Z,38.70
2023-02-02T09:29:23.029Z,38.80
2023-02-02T09:31:52.954Z,38.60
2023-02-02T09:34:22.867Z,38.80
2023-02-02T09:36:53.587Z,38.90
2023-02-02T09:39:23.438Z,38.80
2023-02-02T09:42:22.863Z,38.90
2023-02-02T09:45:01.606Z,38.90
2023-02-02T09:47:54.016Z,38.90
2023-02-02T09:50:45.619Z,38.80
2023-02-02T09:53:53.016Z,38.60
2023-02-02T09:56:40.344Z,38.80
2023-02-02T09:59:21.826Z,39.00
2023-02-02T10:01:58.219Z,39.10
2023-02-02T10:04:41.144Z,39.20
2023-02-02T10:07:21.060Z,39.30
2023-02-02T10:10:05.138Z,39.50
2023-02-02T10:12:49.449Z,39.70
2023-02-02T10:15:45.031Z,39.90
2023-02-02T10:18:30.482Z,40.00
2023-02-02T10:21:03.572Z,40.20
2023-02-02T10:23:43.387Z,40.30
2023-02-02T10:26:40.273Z,40.50
2023-02-02T10:29:49.594Z,40.50
2023-02-02T10:32:49.193Z,40.60
2023-02-02T10:35:42.077Z,40.80
2023-02-02T10:38:46.655Z,41.00
2023-02-02T10:41:45.654Z,41.20
2023-02-02T10:44:45.296Z,41.40
2023-02-02T10:47:25.239Z,41.60
2023-02-02T10:50:19.711Z,41.70
2023-02-02T10:53:02.414Z,41.90
2023-02-02T10:55:58.370Z,42.00
2023-02-02T10:58:41.273Z,42.10
2023-02-02T11:01:13.277Z,42.10
2023-02-02T11:03:43.105Z,42.30
2023-02-02T11:06:36.663Z,42.40
2023-02-02T11:09:06.771Z,42.60
2023-02-02T11:11:43.149Z,43.00
2023-02-02T11:14:45.134Z,43.10
2023-02-02T11:17:31.841Z,43.40
2023-02-02T11:20:01.852Z,43.70
2023-02-02T11:22:37.744Z,44.10
2023-02-02T11:25:25.720Z,44.60
2023-02-02T11:27:55.894Z,45.00
2023-02-02T11:30:37.207Z,45.20
2023-02-02T11:33:37.986Z,45.30
2023-02-02T11:36:22.115Z,45.70
2023-02-02T11:39:11.457Z,45.90
2023-02-02T11:41:41.388Z,46.20
2023-02-02T11:44:27.545Z,46.60
2023-02-02T11:46:59.229Z,47.10
2023-02-02T11:49:29.296Z,47.10
2023-02-02T11:52:02.881Z,47.30
2023-02-02T11:54:35.751Z,47.30
2023-02-02T11:57:12.444Z,47.50
2023-02-02T11:59:47.455Z,47.60
2023-02-02T12:02:34.209Z,47.90
2023-02-02T12:05:39.201Z,48.30
2023-02-02T12:08:14.382Z,48.80
2023-02-02T12:11:04.927Z,48.90
2023-02-02T12:13:53.899Z,49.20
2023-02-02T12:16:57.390Z,49.50
2023-02-02T12:20:06.403Z,50.00
2023-02-02T12:23:03.220Z,50.50
2023-02-02T12:26:00.858Z,50.60
2023-02-02T12:29:06.255Z,50.30
2023-02-02T12:32:11.770Z,50.50
2023-02-02T12:35:04.056Z,50.80
2023-02-02T12:37:58.299Z,50.80
2023-02-02T12:40:54.142Z,51.00
2023-02-02T12:43:48.359Z,51.30
2023-02-02T12:46:34.546Z,51.60
2023-02-02T12:49:36.391Z,51.70
2023-02-02T12:52:39.427Z,52.00
2023-02-02T12:55:39.847Z,52.10
2023-02-02T12:58:41.539Z,52.20
2023-02-02T13:01:42.271Z,52.80
2023-02-02T13:04:51.399Z,53.20
2023-02-02T13:07:34.953Z,53.70
2023-02-02T13:10:34.153Z,53.60
2023-02-02T13:13:21.701Z,53.70
2023-02-02T13:15:57.467Z,53.70
2023-02-02T13:18:34.189Z,53.80
2023-02-02T13:21:08.493Z,54.10
2023-02-02T13:23:44.759Z,54.90
2023-02-02T13:26:27.789Z,54.70
2023-02-02T13:29:47.431Z,55.30
2023-02-02T13:32:38.308Z,55.30
2023-02-02T13:35:33.749Z,55.20
2023-02-02T13:38:36.611Z,55.50
2023-02-02T13:41:11.111Z,55.60
2023-02-02T13:44:14.971Z,55.60
2023-02-02T13:46:57.494Z,55.90
